Time;durP1;ratioP1;P1;durP2;ratioP2;P2;SDS_P1;SDS_P2;PMS_P1;PMS_P2;Temp;Humidity;BMP_temperature;BMP_pressure;BME280_temperature;BME280_humidity;BME280_pressure;Samples;Min_cycle;Max_cycle;Signal;HPM_P1;HPM_P2
2022/01/25 00:29:15;;;;;;;109.05;33.22;;;4.00;99.90;;;;;;5058585;28;20101;-78
2022/01/25 00:31:13;;;;;;;100.93;31.50;;;4.00;99.90;;;;;;5051670;28;20112;-79
2022/01/25 00:33:48;;;;;;;104.25;31.33;;;4.10;99.90;;;;;;5059098;28;20056;-79
2022/01/25 00:36:16;;;;;;;106.75;32.38;;;4.10;99.90;;;;;;5057764;28;20504;-78
2022/01/25 00:38:43;;;;;;;100.63;31.00;;;4.10;99.90;;;;;;5074069;28;20043;-79
2022/01/25 00:41:09;;;;;;;99.85;31.33;;;4.10;99.90;;;;;;5072972;28;20114;-79
2022/01/25 00:43:35;;;;;;;102.90;31.40;;;4.10;99.90;;;;;;5055085;28;20106;-79
2022/01/25 00:46:05;;;;;;;105.18;32.90;;;4.10;99.90;;;;;;5038871;28;20055;-79
2022/01/25 00:53:56;;;;;;;99.85;31.02;;;4.20;99.90;;;;;;5053288;28;20150;-78
2022/01/25 00:56:22;;;;;;;102.43;31.90;;;4.20;99.90;;;;;;5033478;28;20045;-79
2022/01/25 00:58:49;;;;;;;101.40;29.88;;;4.20;99.90;;;;;;5053103;28;20053;-79
2022/01/25 01:01:15;;;;;;;96.13;29.97;;;4.20;99.90;;;;;;5042575;28;20110;-78
2022/01/25 01:03:41;;;;;;;105.82;30.58;;;4.20;99.90;;;;;;5056168;28;20501;-79
2022/01/25 01:06:07;;;;;;;98.60;30.48;;;4.10;99.90;;;;;;5055484;28;20131;-79
2022/01/25 01:08:33;;;;;;;100.60;30.88;;;4.20;99.90;;;;;;5040919;28;20048;-79
2022/01/25 01:11:02;;;;;;;107.63;31.77;;;4.20;99.90;;;;;;5074644;28;20055;-78
2022/01/25 01:46:05;;;;;;;100.55;30.65;;;3.90;99.90;;;;;;5053550;28;20063;-80
2022/01/25 01:48:52;;;;;;;93.70;29.98;;;3.90;99.90;;;;;;5053310;28;20119;-79
2022/01/25 01:51:28;;;;;;;97.00;29.20;;;3.90;99.90;;;;;;5053242;28;20044;-79
2022/01/25 01:53:56;;;;;;;96.47;29.45;;;3.90;99.90;;;;;;5053562;28;20048;-79
2022/01/25 01:56:22;;;;;;;99.53;29.60;;;4.00;99.90;;;;;;5052284;28;20048;-79
2022/01/25 01:58:51;;;;;;;99.07;28.30;;;4.00;99.90;;;;;;5036430;28;20055;-80
2022/01/25 02:01:18;;;;;;;102.40;30.05;;;4.00;99.90;;;;;;5053303;28;20083;-78
2022/01/25 02:03:44;;;;;;;94.17;29.40;;;4.00;99.90;;;;;;5036834;28;20060;-78
2022/01/25 02:06:10;;;;;;;98.13;28.88;;;4.00;99.90;;;;;;5053309;28;20046;-77
2022/01/25 02:08:36;;;;;;;105.78;31.60;;;4.00;99.90;;;;;;5074374;28;20460;-78
2022/01/25 02:11:04;;;;;;;94.38;29.58;;;4.10;99.90;;;;;;5061923;28;20083;-78
2022/01/25 02:13:30;;;;;;;97.50;29.00;;;4.00;99.90;;;;;;5036103;28;20137;-78
2022/01/25 02:15:58;;;;;;;99.93;29.53;;;4.00;99.90;;;;;;5053247;28;20044;-78
2022/01/25 02:23:41;;;;;;;105.30;31.38;;;4.10;99.90;;;;;;5051223;28;20079;-79
2022/01/25 02:26:09;;;;;;;101.13;30.35;;;4.00;99.90;;;;;;5049711;28;20439;-78
2022/01/25 02:28:41;;;;;;;107.13;31.65;;;3.90;99.90;;;;;;5045746;28;20053;-79
2022/01/25 02:31:09;;;;;;;100.07;29.75;;;3.90;99.90;;;;;;5033153;28;20045;-79
2022/01/25 02:33:36;;;;;;;97.93;30.27;;;3.90;99.90;;;;;;5050326;28;20040;-79
2022/01/25 02:36:05;;;;;;;104.78;31.25;;;3.90;99.90;;;;;;5049515;28;20049;-78
2022/01/25 02:38:33;;;;;;;101.57;30.20;;;3.90;99.90;;;;;;5049366;28;20412;-78
2022/01/25 02:41:02;;;;;;;99.07;29.95;;;3.80;99.90;;;;;;5032450;28;20234;-77
2022/01/25 02:43:29;;;;;;;110.70;31.85;;;3.80;99.90;;;;;;5016608;28;20045;-77
2022/01/25 02:48:29;;;;;;;100.30;31.75;;;3.80;99.90;;;;;;5049430;28;20067;-78
2022/01/25 02:48:56;;;;;;;102.55;30.67;;;3.90;99.90;;;;;;5043551;28;20052;-78
2022/01/25 02:51:34;;;;;;;102.75;29.65;;;3.90;99.90;;;;;;5028719;28;20390;-78
2022/01/25 02:54:01;;;;;;;103.28;31.02;;;3.90;99.90;;;;;;5030631;28;20445;-78
2022/01/25 02:56:28;;;;;;;98.57;30.00;;;3.90;99.90;;;;;;5029501;28;20081;-78
2022/01/25 02:58:55;;;;;;;107.47;32.17;;;3.80;99.90;;;;;;5034341;28;20049;-77
2022/01/25 03:01:21;;;;;;;;;;;3.80;99.90;;;;;;5049040;28;20049;-80
2022/01/25 03:03:47;;;;;;;105.68;30.80;;;3.80;99.90;;;;;;5049845;28;20387;-77
2022/01/25 03:06:19;;;;;;;110.17;32.93;;;3.80;99.90;;;;;;5048429;28;20099;-78
2022/01/25 03:08:46;;;;;;;105.35;31.33;;;3.70;99.90;;;;;;5049864;28;20116;-78
2022/01/25 03:11:12;;;;;;;95.40;30.17;;;3.80;99.90;;;;;;5049541;28;20044;-78
2022/01/25 03:13:49;;;;;;;101.32;30.42;;;3.80;99.90;;;;;;5036697;28;20087;-79
2022/01/25 03:16:22;;;;;;;104.90;31.13;;;3.80;99.90;;;;;;5034369;28;20194;-78
2022/01/25 03:18:49;;;;;;;103.85;29.77;;;3.80;99.90;;;;;;5048204;28;20106;-78
2022/01/25 03:21:22;;;;;;;109.03;31.77;;;3.80;99.90;;;;;;5032008;28;20041;-78
2022/01/25 03:23:51;;;;;;;109.03;31.02;;;3.80;99.90;;;;;;5050051;28;20056;-78
2022/01/25 03:26:17;;;;;;;102.82;31.60;;;3.70;99.90;;;;;;5048595;28;20068;-78
2022/01/25 03:28:44;;;;;;;105.93;32.07;;;3.80;99.90;;;;;;5049736;28;20083;-78
2022/01/25 03:31:09;;;;;;;102.70;31.25;;;3.80;99.90;;;;;;5049238;28;20041;-79
2022/01/25 03:33:35;;;;;;;103.55;32.03;;;3.90;99.90;;;;;;5048908;28;20107;-79
2022/01/25 03:36:02;;;;;;;107.95;31.23;;;3.90;99.90;;;;;;5050646;28;20118;-79
2022/01/25 03:38:28;;;;;;;107.80;30.90;;;3.80;99.90;;;;;;5037818;28;20416;-79
2022/01/25 03:40:54;;;;;;;107.05;30.95;;;3.90;99.90;;;;;;5051736;28;20048;-79
2022/01/25 03:43:20;;;;;;;106.15;31.60;;;3.80;99.90;;;;;;5055496;28;20052;-78
2022/01/25 03:45:58;;;;;;;108.60;30.83;;;3.90;99.90;;;;;;5053391;28;20045;-79
2022/01/25 03:50:52;;;;;;;105.68;30.17;;;3.80;99.90;;;;;;5049789;28;20044;-78
2022/01/25 03:53:19;;;;;;;100.22;30.35;;;3.80;99.90;;;;;;5054400;28;20082;-78
2022/01/25 03:55:47;;;;;;;103.50;30.05;;;3.70;99.90;;;;;;5053710;28;20045;-78
2022/01/25 03:58:13;;;;;;;108.32;30.98;;;3.70;99.90;;;;;;5036947;28;20076;-78
2022/01/25 04:00:41;;;;;;;105.93;32.42;;;3.70;99.90;;;;;;5034063;28;20049;-78
2022/01/25 04:03:17;;;;;;;107.43;31.90;;;3.80;99.90;;;;;;5017487;28;20104;-77
2022/01/25 04:08:10;;;;;;;102.75;33.08;;;3.70;99.90;;;;;;5034881;28;20057;-78
2022/01/25 04:10:37;;;;;;;110.15;32.17;;;3.70;99.90;;;;;;5031645;28;20048;-78
2022/01/25 04:13:04;;;;;;;117.03;32.55;;;3.70;99.90;;;;;;5033114;28;20096;-78
2022/01/25 04:15:30;;;;;;;108.50;31.20;;;3.60;99.90;;;;;;5033403;28;20124;-77
2022/01/25 04:18:25;;;;;;;102.50;29.67;;;3.70;99.90;;;;;;5014592;28;20316;-78
2022/01/25 04:20:53;;;;;;;112.35;31.27;;;3.70;99.90;;;;;;5021067;28;20041;-77
2022/01/25 04:26:03;;;;;;;105.10;30.08;;;3.80;99.90;;;;;;5050663;28;20384;-77
2022/01/25 04:28:29;;;;;;;110.97;31.60;;;3.80;99.90;;;;;;5051435;28;20085;-77
2022/01/25 04:30:56;;;;;;;106.85;31.80;;;3.80;99.90;;;;;;5034081;28;20139;-78
2022/01/25 04:33:28;;;;;;;101.55;31.17;;;3.70;99.90;;;;;;5053198;28;20596;-78
2022/01/25 04:36:10;;;;;;;110.28;31.75;;;3.70;99.90;;;;;;5034749;28;20602;-79
2022/01/25 04:49:39;;;;;;;105.35;31.52;;;3.80;99.90;;;;;;5051236;28;20045;-78
2022/01/25 04:52:13;;;;;;;108.82;31.65;;;3.80;99.90;;;;;;5051358;28;20048;-78
2022/01/25 04:59:47;;;;;;;109.82;33.45;;;3.80;99.90;;;;;;5050999;28;20110;-79
2022/01/25 05:02:33;;;;;;;106.93;31.02;;;3.70;99.90;;;;;;5055011;28;20465;-78
2022/01/25 05:05:15;;;;;;;102.80;30.07;;;3.60;99.90;;;;;;5056719;28;20051;-77
2022/01/25 05:08:00;;;;;;;110.25;33.42;;;3.60;99.90;;;;;;5042988;28;20302;-78
2022/01/25 05:10:34;;;;;;;108.05;31.58;;;3.70;99.90;;;;;;5050656;28;20052;-78
2022/01/25 05:16:04;;;;;;;102.50;29.67;;;3.80;99.90;;;;;;5050911;28;20064;-78
2022/01/25 05:18:37;;;;;;;104.10;30.55;;;3.80;99.90;;;;;;5065924;28;20466;-78
2022/01/25 05:23:49;;;;;;;99.72;29.58;;;3.80;99.90;;;;;;5072607;28;20454;-77
2022/01/25 05:26:14;;;;;;;103.13;30.48;;;3.80;99.90;;;;;;5053199;28;20044;-78
2022/01/25 05:28:40;;;;;;;107.55;30.50;;;3.80;99.90;;;;;;5053906;28;20044;-77
2022/01/25 05:31:06;;;;;;;105.03;29.38;;;3.80;99.90;;;;;;5072077;28;20044;-80
2022/01/25 05:33:32;;;;;;;102.68;30.08;;;3.80;99.90;;;;;;5054056;28;20071;-78
2022/01/25 05:35:58;;;;;;;103.65;29.85;;;3.80;99.90;;;;;;5053611;28;20134;-78
2022/01/25 05:38:24;;;;;;;104.63;30.25;;;3.80;99.90;;;;;;5072004;28;20063;-78
2022/01/25 05:40:59;;;;;;;105.82;29.98;;;3.80;99.90;;;;;;5052709;28;20033;-79
2022/01/25 05:46:15;;;;;;;103.38;29.60;;;3.80;99.90;;;;;;5071934;28;20512;-79
2022/01/25 05:48:41;;;;;;;104.05;28.35;;;3.80;99.90;;;;;;5071476;28;20044;-78
2022/01/25 05:51:07;;;;;;;98.85;28.50;;;3.80;99.90;;;;;;5070888;28;20094;-77
2022/01/25 05:53:33;;;;;;;97.22;28.92;;;3.80;99.90;;;;;;5051909;28;20469;-78
2022/01/25 05:55:59;;;;;;;97.43;28.65;;;3.70;99.90;;;;;;5050025;28;20053;-78
2022/01/25 05:58:25;;;;;;;107.13;29.00;;;3.70;99.90;;;;;;5052752;28;20098;-78
2022/01/25 06:00:52;;;;;;;107.80;29.65;;;3.80;99.90;;;;;;5052030;28;20135;-79
2022/01/25 06:03:18;;;;;;;102.50;27.55;;;3.80;99.90;;;;;;5054172;28;20056;-79
2022/01/25 06:05:50;;;;;;;93.68;28.48;;;3.80;99.90;;;;;;5052231;28;20055;-80
2022/01/25 06:08:16;;;;;;;96.25;27.15;;;3.80;99.90;;;;;;5037270;28;20052;-78
2022/01/25 06:10:42;;;;;;;95.85;28.35;;;3.80;99.90;;;;;;5038555;28;20445;-78
2022/01/25 06:13:08;;;;;;;110.78;28.98;;;3.70;99.90;;;;;;5038139;28;20040;-78
2022/01/25 06:15:34;;;;;;;98.78;27.90;;;3.70;99.90;;;;;;5016054;28;20045;-79
2022/01/25 06:18:00;;;;;;;94.47;27.95;;;3.70;99.90;;;;;;5036262;28;20524;-78
2022/01/25 06:20:26;;;;;;;99.43;28.48;;;3.70;99.90;;;;;;5018740;28;20108;-78
2022/01/25 06:22:51;;;;;;;97.00;28.70;;;3.70;99.90;;;;;;5072388;28;20048;-78
2022/01/25 06:25:17;;;;;;;105.45;28.67;;;3.70;99.90;;;;;;5054627;28;20040;-79
2022/01/25 06:27:44;;;;;;;101.28;28.63;;;3.70;99.90;;;;;;5072314;28;20150;-77
2022/01/25 06:30:13;;;;;;;106.55;30.15;;;3.70;99.90;;;;;;5053463;28;20059;-78
2022/01/25 06:32:39;;;;;;;98.63;27.17;;;3.70;99.90;;;;;;5036587;28;20044;-77
2022/01/25 06:35:06;;;;;;;96.22;26.95;;;3.70;99.90;;;;;;5065818;28;20044;-79
2022/01/25 06:37:32;;;;;;;99.97;28.13;;;3.70;99.90;;;;;;5053317;28;20047;-80
2022/01/25 06:39:58;;;;;;;97.15;26.35;;;3.70;99.90;;;;;;5073603;28;20056;-79
2022/01/25 06:42:29;;;;;;;99.25;27.70;;;3.70;99.90;;;;;;5054322;28;20098;-79
2022/01/25 06:44:59;;;;;;;100.13;29.08;;;3.70;99.90;;;;;;5070493;28;20044;-80
2022/01/25 06:47:25;;;;;;;111.30;30.25;;;3.60;99.90;;;;;;5019873;28;20084;-79
2022/01/25 06:49:50;;;;;;;107.03;29.73;;;3.60;99.90;;;;;;5036042;28;20133;-79
2022/01/25 06:52:16;;;;;;;96.65;27.75;;;3.50;99.90;;;;;;5072457;28;20036;-79
2022/01/25 06:54:42;;;;;;;101.70;28.95;;;3.60;99.90;;;;;;5056922;28;20132;-79
2022/01/25 06:57:08;;;;;;;103.30;28.30;;;3.60;99.90;;;;;;5068722;28;20461;-78
2022/01/25 06:59:35;;;;;;;106.03;29.42;;;3.60;99.90;;;;;;5065628;28;20432;-79
2022/01/25 07:02:00;;;;;;;103.03;28.27;;;3.70;99.90;;;;;;5048856;28;20080;-78
2022/01/25 07:04:26;;;;;;;103.15;29.13;;;3.70;99.90;;;;;;5046499;28;20083;-78
2022/01/25 07:06:52;;;;;;;93.50;26.27;;;3.70;99.90;;;;;;5047807;28;20040;-79
2022/01/25 07:09:18;;;;;;;101.75;28.95;;;3.70;99.90;;;;;;5048750;28;20083;-79
2022/01/25 07:11:44;;;;;;;104.60;27.48;;;3.80;99.90;;;;;;5066132;28;20094;-79
2022/01/25 07:14:09;;;;;;;103.32;28.83;;;3.80;99.90;;;;;;5037886;28;20051;-78
2022/01/25 07:16:35;;;;;;;101.93;29.05;;;3.70;99.90;;;;;;5038651;28;20051;-78
2022/01/25 07:19:01;;;;;;;102.32;28.60;;;3.70;99.90;;;;;;5054671;28;20048;-80
2022/01/25 07:21:27;;;;;;;100.00;29.90;;;3.70;99.90;;;;;;5056415;28;20056;-79
2022/01/25 07:23:53;;;;;;;106.75;28.30;;;3.70;99.90;;;;;;5072404;28;20099;-79
2022/01/25 07:26:18;;;;;;;103.53;27.92;;;3.60;99.90;;;;;;5068049;28;20124;-78
2022/01/25 07:28:44;;;;;;;108.95;29.90;;;3.60;99.90;;;;;;5034458;28;20184;-77
2022/01/25 07:31:10;;;;;;;93.80;27.00;;;3.60;99.90;;;;;;5053257;28;20120;-78
2022/01/25 07:33:36;;;;;;;104.15;28.02;;;3.60;99.90;;;;;;5039558;28;20147;-78
2022/01/25 07:36:02;;;;;;;101.22;27.50;;;3.70;99.90;;;;;;5072758;28;20078;-79
2022/01/25 07:38:28;;;;;;;107.22;29.77;;;3.60;99.90;;;;;;5055813;28;20117;-78
2022/01/25 07:40:53;;;;;;;103.03;29.65;;;3.70;99.90;;;;;;5038189;28;20052;-78
2022/01/25 07:43:19;;;;;;;108.53;28.85;;;3.70;99.90;;;;;;5074840;28;20143;-78
2022/01/25 07:45:51;;;;;;;99.72;27.20;;;3.60;99.90;;;;;;5055561;28;20040;-78
2022/01/25 07:48:17;;;;;;;104.35;27.55;;;3.60;99.90;;;;;;5055996;28;20075;-78
2022/01/25 07:50:43;;;;;;;100.72;27.42;;;3.70;99.90;;;;;;5007500;28;20045;-78
2022/01/25 07:53:09;;;;;;;110.47;28.63;;;3.70;99.90;;;;;;5056808;28;20194;-78
2022/01/25 07:55:35;;;;;;;103.70;28.83;;;3.70;99.90;;;;;;5082141;28;20125;-78
2022/01/25 07:58:01;;;;;;;94.97;26.52;;;3.70;99.90;;;;;;5090644;28;20124;-78
2022/01/25 08:00:27;;;;;;;103.67;28.50;;;3.70;99.90;;;;;;5089657;28;20036;-78
2022/01/25 08:02:53;;;;;;;100.80;28.73;;;3.70;99.90;;;;;;5069183;28;20040;-78
2022/01/25 08:05:23;;;;;;;104.47;28.27;;;3.80;99.90;;;;;;5067034;28;20134;-79
2022/01/25 08:07:50;;;;;;;101.50;28.00;;;3.70;99.90;;;;;;5066045;28;20045;-78
2022/01/25 08:10:16;;;;;;;104.00;28.13;;;3.80;99.90;;;;;;5085156;28;20083;-78
2022/01/25 08:12:42;;;;;;;96.55;27.05;;;3.70;99.90;;;;;;5066964;28;20465;-79
2022/01/25 08:15:09;;;;;;;99.82;28.17;;;3.70;99.90;;;;;;5086915;28;20125;-79
2022/01/25 08:17:35;;;;;;;99.80;27.67;;;3.70;99.90;;;;;;5068722;28;20107;-80
2022/01/25 08:20:02;;;;;;;103.60;29.83;;;3.80;99.90;;;;;;5085082;28;20051;-79
2022/01/25 08:22:28;;;;;;;101.07;27.90;;;3.80;99.90;;;;;;5067318;28;20056;-79
2022/01/25 08:24:54;;;;;;;99.18;28.42;;;3.80;99.90;;;;;;5032500;28;20041;-79
2022/01/25 08:27:22;;;;;;;95.13;26.67;;;3.70;99.90;;;;;;5050987;28;20052;-79
2022/01/25 08:29:49;;;;;;;100.60;29.00;;;3.80;99.90;;;;;;5081593;28;20040;-79
2022/01/25 08:32:15;;;;;;;107.28;27.95;;;3.80;99.90;;;;;;5025676;28;20405;-79
2022/01/25 08:34:41;;;;;;;105.47;29.23;;;3.80;99.90;;;;;;5054807;28;20063;-79
2022/01/25 08:37:10;;;;;;;100.28;28.08;;;3.80;99.90;;;;;;5070581;28;20055;-81
2022/01/25 08:39:36;;;;;;;109.28;29.05;;;3.80;99.90;;;;;;5034021;28;20516;-78
2022/01/25 08:42:03;;;;;;;105.45;29.33;;;3.80;99.90;;;;;;5053461;28;20542;-77
2022/01/25 08:44:29;;;;;;;101.35;29.30;;;3.80;99.90;;;;;;5053000;28;20107;-77
2022/01/25 08:46:56;;;;;;;103.45;28.35;;;3.80;99.90;;;;;;5053996;28;20044;-78
2022/01/25 08:49:21;;;;;;;104.43;27.50;;;3.90;99.90;;;;;;5054627;28;20055;-76
2022/01/25 08:51:48;;;;;;;100.80;28.92;;;3.80;99.90;;;;;;5071092;28;20033;-78
2022/01/25 08:54:16;;;;;;;100.45;27.92;;;3.90;99.90;;;;;;5037716;28;20041;-81
2022/01/25 08:56:42;;;;;;;101.53;29.40;;;3.90;99.90;;;;;;5071256;28;20044;-79
2022/01/25 08:59:09;;;;;;;101.75;28.20;;;3.80;99.90;;;;;;5068159;28;20044;-78
2022/01/25 09:01:34;;;;;;;103.93;28.70;;;3.90;99.90;;;;;;5069453;28;20045;-78
2022/01/25 09:04:03;;;;;;;104.72;28.00;;;4.00;99.90;;;;;;5050712;28;20083;-79
2022/01/25 09:06:30;;;;;;;107.47;27.85;;;3.90;99.90;;;;;;5048544;28;20037;-79
2022/01/25 09:09:01;;;;;;;93.55;27.58;;;4.00;99.90;;;;;;5046857;28;20044;-79
2022/01/25 09:11:27;;;;;;;99.03;27.77;;;3.90;99.90;;;;;;5049062;28;20052;-79
2022/01/25 09:13:53;;;;;;;99.07;28.50;;;4.00;99.90;;;;;;5053820;28;20049;-80
2022/01/25 09:16:19;;;;;;;94.38;26.55;;;4.00;99.90;;;;;;5057824;28;20534;-79
2022/01/25 09:18:45;;;;;;;104.38;27.63;;;3.90;99.90;;;;;;5082347;28;20530;-78
2022/01/25 09:21:11;;;;;;;99.20;29.08;;;3.90;99.90;;;;;;5063863;28;20052;-80
2022/01/25 09:23:37;;;;;;;102.97;28.92;;;3.90;99.90;;;;;;5063471;28;20044;-78
2022/01/25 09:26:04;;;;;;;98.70;27.13;;;3.90;99.90;;;;;;5060947;28;20040;-80
2022/01/25 09:28:30;;;;;;;98.75;27.00;;;4.00;99.90;;;;;;5062977;28;20055;-80
2022/01/25 09:31:01;;;;;;;100.55;29.13;;;4.00;99.90;;;;;;5079391;28;20060;-79
2022/01/25 09:33:27;;;;;;;106.30;28.58;;;4.00;99.90;;;;;;5080805;28;20055;-80
2022/01/25 09:35:54;;;;;;;103.90;28.63;;;4.00;99.90;;;;;;5080245;28;20075;-79
2022/01/25 09:38:21;;;;;;;94.75;26.75;;;4.10;99.90;;;;;;5064266;28;20044;-79
2022/01/25 09:40:48;;;;;;;103.45;28.92;;;4.10;99.90;;;;;;5061817;28;20044;-80
2022/01/25 09:43:14;;;;;;;93.43;26.52;;;4.10;99.90;;;;;;5080959;28;20158;-79
2022/01/25 09:45:41;;;;;;;96.95;28.50;;;4.10;99.90;;;;;;5079871;28;20478;-78
2022/01/25 09:48:07;;;;;;;101.65;27.20;;;4.20;99.90;;;;;;5082082;28;20073;-79
2022/01/25 09:50:35;;;;;;;98.15;27.55;;;4.20;99.90;;;;;;5081530;28;20041;-78
2022/01/25 09:53:01;;;;;;;;;;;4.20;99.90;;;;;;5027648;28;20349;-77
2022/01/25 09:55:31;;;;;;;98.85;27.52;;;4.10;99.90;;;;;;5079355;28;19952;-78
2022/01/25 09:57:57;;;;;;;106.75;27.95;;;4.10;99.90;;;;;;5066639;28;20385;-78
2022/01/25 10:00:25;;;;;;;100.28;29.77;;;4.20;99.90;;;;;;5062669;28;20048;-78
2022/01/25 10:05:36;;;;;;;98.80;28.15;;;4.10;99.90;;;;;;5068788;28;20049;-80
2022/01/25 10:08:09;;;;;;;99.57;27.27;;;4.20;99.90;;;;;;5070673;28;20051;-79
2022/01/25 10:10:56;;;;;;;100.85;27.00;;;4.20;99.90;;;;;;5086290;28;20055;-78
2022/01/25 10:13:29;;;;;;;101.32;28.27;;;4.20;99.90;;;;;;5067534;28;20067;-79
2022/01/25 10:16:07;;;;;;;106.43;26.90;;;4.10;99.90;;;;;;5065222;28;20048;-78
2022/01/25 10:18:54;;;;;;;95.25;26.95;;;4.20;99.90;;;;;;5070806;28;20190;-77
2022/01/25 10:21:31;;;;;;;;;;;4.20;99.90;;;;;;5048265;28;20045;-79
2022/01/25 10:24:10;;;;;;;113.93;28.73;;;4.20;99.90;;;;;;5068866;28;19920;-79
2022/01/25 10:26:39;;;;;;;101.55;27.85;;;4.20;99.90;;;;;;5052024;28;20041;-79
2022/01/25 10:29:10;;;;;;;101.63;29.60;;;4.20;99.90;;;;;;5067581;28;20424;-77
2022/01/25 10:31:40;;;;;;;99.43;27.25;;;4.20;99.90;;;;;;5086068;28;20420;-80
2022/01/25 10:34:09;;;;;;;97.80;26.83;;;4.20;99.90;;;;;;5051064;28;20056;-78
2022/01/25 10:36:45;;;;;;;106.28;28.65;;;4.20;99.90;;;;;;5084360;28;20415;-79
2022/01/25 10:39:12;;;;;;;100.40;28.10;;;4.30;99.90;;;;;;5049314;28;20108;-79
2022/01/25 10:41:39;;;;;;;96.60;27.38;;;4.30;99.90;;;;;;5058679;28;20041;-79
2022/01/25 10:44:08;;;;;;;99.22;28.10;;;4.30;99.90;;;;;;5081736;28;20075;-79
2022/01/25 10:46:39;;;;;;;111.85;28.13;;;4.30;99.90;;;;;;5049211;28;20087;-79
2022/01/25 10:49:10;;;;;;;103.07;28.35;;;4.30;99.90;;;;;;5088233;28;20033;-77
2022/01/25 10:51:43;;;;;;;99.03;27.25;;;4.30;99.90;;;;;;5069905;28;20041;-79
2022/01/25 10:54:10;;;;;;;96.78;27.15;;;4.30;99.90;;;;;;5072191;28;20060;-79
2022/01/25 10:56:46;;;;;;;90.07;26.38;;;4.40;99.90;;;;;;5047774;28;20053;-80
2022/01/25 10:59:16;;;;;;;95.68;27.08;;;4.40;99.90;;;;;;5034924;28;20128;-78
2022/01/25 11:01:57;;;;;;;98.40;27.23;;;4.50;99.90;;;;;;5049544;28;20056;-78
2022/01/25 11:04:26;;;;;;;105.65;28.35;;;4.50;99.90;;;;;;5047902;28;20049;-79
2022/01/25 11:06:57;;;;;;;99.00;27.48;;;4.40;99.90;;;;;;5047718;28;20048;-79
2022/01/25 11:09:25;;;;;;;110.82;28.33;;;4.40;99.90;;;;;;5052945;28;20106;-79
2022/01/25 11:11:55;;;;;;;98.53;27.40;;;4.40;99.90;;;;;;5085234;28;20124;-78
2022/01/25 11:17:05;;;;;;;96.82;27.02;;;4.50;99.90;;;;;;5087117;28;20388;-79
2022/01/25 11:19:31;;;;;;;95.55;25.90;;;4.50;99.90;;;;;;5068995;28;20110;-78
2022/01/25 11:21:59;;;;;;;96.38;28.38;;;4.50;99.90;;;;;;5088296;28;20037;-78
2022/01/25 11:24:29;;;;;;;101.72;28.13;;;4.50;99.90;;;;;;5069755;28;20104;-78
2022/01/25 11:26:56;;;;;;;100.55;27.42;;;4.60;99.90;;;;;;5087070;28;20056;-78
2022/01/25 11:29:23;;;;;;;97.95;27.90;;;4.50;99.90;;;;;;5052038;28;20103;-78
2022/01/25 11:31:52;;;;;;;95.47;27.63;;;4.60;99.90;;;;;;5087442;28;20043;-78
2022/01/25 11:34:23;;;;;;;100.43;26.75;;;4.50;99.90;;;;;;5068543;28;20048;-77
2022/01/25 11:37:01;;;;;;;95.18;27.35;;;4.60;99.90;;;;;;5068239;28;20075;-79
2022/01/25 11:39:29;;;;;;;101.05;29.38;;;4.60;99.90;;;;;;5068367;28;20077;-76
2022/01/25 11:42:10;;;;;;;105.10;28.48;;;4.60;99.90;;;;;;5049354;28;20040;-77
2022/01/25 11:44:55;;;;;;;98.72;28.02;;;4.50;99.90;;;;;;5060745;28;20052;-77
2022/01/25 11:47:29;;;;;;;94.78;27.77;;;4.50;99.90;;;;;;5067204;28;20053;-80
2022/01/25 11:50:02;;;;;;;100.28;28.33;;;4.60;99.90;;;;;;5084628;28;20040;-79
2022/01/25 11:52:30;;;;;;;99.93;26.15;;;4.60;99.90;;;;;;5083697;28;20060;-80
2022/01/25 11:55:18;;;;;;;101.90;27.52;;;4.60;99.90;;;;;;5066768;28;20090;-78
2022/01/25 11:58:04;;;;;;;94.28;26.80;;;4.60;99.90;;;;;;5067335;28;20119;-79
2022/01/25 12:00:44;;;;;;;95.10;26.33;;;4.60;99.90;;;;;;5054129;28;20052;-79
2022/01/25 12:03:26;;;;;;;95.95;25.67;;;4.60;99.90;;;;;;5073995;28;20041;-80
2022/01/25 12:06:08;;;;;;;87.78;24.98;;;4.60;99.90;;;;;;5090913;28;20106;-78
2022/01/25 12:11:46;;;;;;;102.75;27.58;;;4.60;99.90;;;;;;5050384;28;20060;-80
2022/01/25 12:14:39;;;;;;;97.68;29.20;;;4.50;99.90;;;;;;5076997;28;20110;-79
2022/01/25 12:17:04;;;;;;;94.28;26.65;;;4.60;99.90;;;;;;5086282;28;20056;-77
2022/01/25 12:19:30;;;;;;;98.88;27.02;;;4.60;99.90;;;;;;5068482;28;20112;-76
2022/01/25 12:21:57;;;;;;;102.38;27.65;;;4.60;99.90;;;;;;5070917;28;20062;-78
2022/01/25 12:24:40;;;;;;;99.40;27.40;;;4.60;99.90;;;;;;5089994;28;20118;-78
2022/01/25 12:27:21;;;;;;;101.80;29.15;;;4.60;99.90;;;;;;5061129;28;20048;-78
2022/01/25 12:30:00;;;;;;;100.03;27.10;;;4.60;99.90;;;;;;5069244;28;20050;-76
2022/01/25 12:32:30;;;;;;;105.88;29.15;;;4.60;99.90;;;;;;5068124;28;20100;-78
2022/01/25 12:35:08;;;;;;;100.78;26.92;;;4.50;99.90;;;;;;5086988;28;20084;-76
2022/01/25 12:37:43;;;;;;;98.30;26.30;;;4.60;99.90;;;;;;5069823;28;20045;-77
2022/01/25 12:40:25;;;;;;;97.10;25.70;;;4.70;99.90;;;;;;5069801;28;20040;-76
2022/01/25 12:42:55;;;;;;;95.38;26.30;;;4.70;99.90;;;;;;5086688;28;20054;-77
2022/01/25 12:46:09;;;;;;;95.32;27.27;;;4.70;99.90;;;;;;5054768;28;20099;-78
2022/01/25 12:48:47;;;;;;;90.53;26.25;;;4.70;99.90;;;;;;5089592;28;20056;-78
2022/01/25 12:51:24;;;;;;;102.60;28.92;;;4.70;99.90;;;;;;5085573;28;20044;-77
2022/01/25 12:53:54;;;;;;;98.70;27.38;;;4.70;99.90;;;;;;5050808;28;20295;-78
2022/01/25 12:56:36;;;;;;;98.07;27.38;;;4.70;99.90;;;;;;5050303;28;20048;-80
2022/01/25 12:59:11;;;;;;;90.40;25.05;;;4.70;99.90;;;;;;5063733;28;20068;-79
2022/01/25 13:01:39;;;;;;;96.45;27.65;;;4.70;99.90;;;;;;5049901;28;20080;-79
2022/01/25 13:04:07;;;;;;;93.57;24.58;;;4.70;99.90;;;;;;5087656;28;20040;-78
2022/01/25 13:06:38;;;;;;;91.53;26.98;;;4.70;99.90;;;;;;5087269;28;20396;-78
2022/01/25 13:09:17;;;;;;;97.65;26.35;;;4.70;99.90;;;;;;5050552;28;20465;-78
2022/01/25 13:17:15;;;;;;;97.35;27.25;;;4.70;99.90;;;;;;5085571;28;20131;-77
2022/01/25 13:19:46;;;;;;;93.20;26.17;;;4.70;99.90;;;;;;5066334;28;20067;-78
2022/01/25 13:22:34;;;;;;;90.47;25.27;;;4.80;99.90;;;;;;5063966;28;20041;-77
2022/01/25 13:25:14;;;;;;;93.05;26.70;;;4.80;99.90;;;;;;5080956;28;20439;-78
2022/01/25 13:27:51;;;;;;;94.65;25.85;;;4.70;99.90;;;;;;5064166;28;20494;-77
2022/01/25 13:30:40;;;;;;;85.60;23.75;;;4.70;99.90;;;;;;5066489;28;20048;-78
2022/01/25 13:33:18;;;;;;;91.35;24.95;;;4.70;99.90;;;;;;5048910;28;20108;-79
2022/01/25 13:35:56;;;;;;;103.55;27.25;;;4.70;99.90;;;;;;5067166;28;20096;-78
2022/01/25 13:38:36;;;;;;;93.40;25.10;;;4.70;99.90;;;;;;5084439;28;20048;-77
2022/01/25 13:46:08;;;;;;;95.70;27.30;;;4.60;99.90;;;;;;5075703;28;20041;-79
2022/01/25 13:48:35;;;;;;;103.70;28.63;;;4.60;99.90;;;;;;5079071;28;20037;-77
2022/01/25 13:51:10;;;;;;;103.10;25.77;;;4.70;99.90;;;;;;5071300;28;20041;-78
2022/01/25 13:53:37;;;;;;;99.20;27.50;;;4.60;99.90;;;;;;5049765;28;20501;-78
2022/01/25 13:56:11;;;;;;;95.03;25.88;;;4.60;99.90;;;;;;5016650;28;20064;-78
2022/01/25 13:58:46;;;;;;;87.25;24.40;;;4.70;99.90;;;;;;5065212;28;20064;-78
2022/01/25 14:01:13;;;;;;;83.88;25.30;;;4.70;99.90;;;;;;5075305;28;20041;-77
2022/01/25 14:03:54;;;;;;;98.78;26.50;;;4.60;99.90;;;;;;5066537;28;20040;-78
2022/01/25 14:06:26;;;;;;;95.25;25.70;;;4.60;99.90;;;;;;5065444;28;20047;-78
2022/01/25 14:09:15;;;;;;;87.78;25.25;;;4.60;99.90;;;;;;5028418;28;20084;-78
2022/01/25 14:23:21;;;;;;;89.05;25.48;;;4.70;99.90;;;;;;5056364;28;20061;-77
2022/01/25 14:25:45;;;;;;;84.90;22.58;;;4.60;99.90;;;;;;5057617;28;20053;-78
2022/01/25 14:28:15;;;;;;;89.00;25.08;;;4.60;99.90;;;;;;5057539;28;20078;-77
2022/01/25 14:30:48;;;;;;;89.35;23.98;;;4.50;99.90;;;;;;5057139;28;20049;-78
2022/01/25 14:33:17;;;;;;;82.13;22.98;;;4.60;99.90;;;;;;5058962;28;20154;-79
2022/01/25 14:35:47;;;;;;;92.45;24.30;;;4.50;99.90;;;;;;5058584;28;20518;-77
2022/01/25 14:38:28;;;;;;;88.03;22.83;;;4.40;99.90;;;;;;5039027;28;20076;-77
2022/01/25 14:41:11;;;;;;;92.93;23.83;;;4.50;99.90;;;;;;5040980;28;20060;-77
2022/01/25 14:43:49;;;;;;;84.78;23.40;;;4.50;99.90;;;;;;5040770;28;20115;-77
2022/01/25 14:46:31;;;;;;;89.32;23.83;;;4.50;99.90;;;;;;5054094;28;20041;-77
2022/01/25 14:49:13;;;;;;;86.80;23.77;;;4.60;99.90;;;;;;5040831;28;20067;-77
2022/01/25 14:51:47;;;;;;;95.70;23.55;;;4.60;99.90;;;;;;5277477;22;20060;-78
2022/01/25 14:54:18;;;;;;;86.32;23.73;;;4.50;99.90;;;;;;5064574;28;20060;-77
2022/01/25 14:56:51;;;;;;;85.18;23.85;;;4.40;99.90;;;;;;5060745;28;20049;-77
2022/01/25 14:59:29;;;;;;;92.13;22.67;;;4.40;99.90;;;;;;5073391;28;20052;-78
2022/01/25 15:02:00;;;;;;;91.50;22.50;;;4.40;99.90;;;;;;5045088;28;20053;-77